Flight Briefing for CPX675

Departure Arrival
Lynden Pindling International Airport (MYNN)
Click to view FAA NOTAMS
Providenciales International Airport (MBPV)
Click to view FAA NOTAMS
Departure Time Arrival Time
N/A N/A
Aircraft Distance
SF340AF 347nm
Departure METAR Arrival METAR
MYNN 212300Z 06007KT 030V100 9999 FEW020 27/19 A2996 MBPV 212200Z 02002KT 9999 SCT015 30/24 Q1011
Suggested Route
ZQA A555 MICAS G648 PVN


View recent IFR Routes data
Notes



Charts and Procedures

Charts for MYNN
No chart available
Charts for MBPV
No chart available

Windy.com Weather Map